Delta Virtual Airport Information Service

Sint Maarten Princess Juliana International Airport

ICAO: TNCM Country: Netherlands
Latitude: 18.041 Longitude: -63.1089
Latest Arrival : DAC3450 (KFLL-TNCM) Latest Departure : DAC3290 (TNCM-KFLL)


WX CaptureLIVE
Data provided by noaa.gov | Fetched at 11:45:24

METAR : TNCM 281600Z 12007KT 9999 FEW022 31/23 Q1017 NOSIG

TAF : TNCM 281120Z 2812/2912 VRB04KT P6SM FEW020 FM281400 13010KT P6SM SCT022 FM282200 VRB03KT P6SM FEW020


Runway Data for TNCM
Data provided by openaviationdata.com

Runway ID Mag Var Hdg Length Elevation Surface ILS Freq ILS Id ILS Slope
10 -13 95° 7670 ft 0 ft Asphalt -- -- --
28 -13 275° 7670 ft 0 ft Asphalt -- -- --

Sint Maarten Princess Juliana International Airport, Netherlands
Use only for reference purposes



Not for navigational purposes.